SHT22A EGLL-EGJB
Flight info
| Callsign | SHT22A |
|---|---|
| Flight time | 0h 34m |
| Altitude | 22000 |
| Route | GOGSI N621 SAM N63 LELNA |
| Aircraft | A319/M-SDE3FGHIRWY/LB1 |
Departure
| Time | 2026-04-25 07:29 |
|---|---|
| Airport | London Heathrow Airport (EGLL) |
Arrival
| Time | 2026-04-25 08:04 |
|---|---|
| Airport | Guernsey Airport (EGJB) |
| Time | Latitude | Longitude | Altitude | Speed | Heading |
|---|---|---|---|---|---|
| 2026-04-25 06:52 | 51.47397 | -0.48040 | 89 ft | 0 kts | 270° |
| 2026-04-25 06:57 | 51.47397 | -0.48042 | 87 ft | 0 kts | 270° |
| 2026-04-25 07:18 | 51.47397 | -0.48018 | 91 ft | 4 kts | 272° |
| 2026-04-25 07:18 | 51.47394 | -0.47975 | 91 ft | 4 kts | 283° |
| 2026-04-25 07:18 | 51.47388 | -0.47943 | 88 ft | 4 kts | 288° |
| 2026-04-25 07:19 | 51.47385 | -0.47903 | 87 ft | 4 kts | 247° |
| 2026-04-25 07:19 | 51.47400 | -0.47877 | 90 ft | 4 kts | 190° |
| 2026-04-25 07:19 | 51.47403 | -0.47875 | 89 ft | 2 kts | 180° |
| 2026-04-25 07:19 | 51.47401 | -0.47875 | 89 ft | 0 kts | 180° |
| 2026-04-25 07:21 | 51.47380 | -0.47876 | 91 ft | 9 kts | 182° |
| 2026-04-25 07:21 | 51.47303 | -0.47875 | 87 ft | 11 kts | 179° |
| 2026-04-25 07:21 | 51.47226 | -0.47874 | 87 ft | 12 kts | 179° |
| 2026-04-25 07:22 | 51.47121 | -0.47873 | 87 ft | 16 kts | 179° |
| 2026-04-25 07:22 | 51.47010 | -0.47872 | 87 ft | 17 kts | 180° |
| 2026-04-25 07:22 | 51.46891 | -0.47870 | 87 ft | 17 kts | 179° |
| 2026-04-25 07:22 | 51.46769 | -0.47870 | 87 ft | 18 kts | 180° |
| 2026-04-25 07:23 | 51.46657 | -0.47822 | 87 ft | 17 kts | 117° |
| 2026-04-25 07:23 | 51.46653 | -0.47634 | 87 ft | 17 kts | 89° |
| 2026-04-25 07:23 | 51.46654 | -0.47436 | 87 ft | 19 kts | 89° |
| 2026-04-25 07:23 | 51.46656 | -0.47217 | 87 ft | 20 kts | 89° |
| 2026-04-25 07:24 | 51.46657 | -0.47001 | 88 ft | 7 kts | 91° |
| 2026-04-25 07:24 | 51.46657 | -0.46999 | 89 ft | 0 kts | 91° |
| 2026-04-25 07:25 | 51.46657 | -0.46931 | 89 ft | 14 kts | 90° |
| 2026-04-25 07:25 | 51.46658 | -0.46702 | 87 ft | 25 kts | 89° |
| 2026-04-25 07:25 | 51.46658 | -0.46423 | 89 ft | 26 kts | 90° |
| 2026-04-25 07:25 | 51.46659 | -0.46104 | 87 ft | 31 kts | 90° |
| 2026-04-25 07:26 | 51.46661 | -0.45749 | 87 ft | 33 kts | 90° |
| 2026-04-25 07:26 | 51.46662 | -0.45390 | 87 ft | 33 kts | 89° |
| 2026-04-25 07:26 | 51.46663 | -0.45026 | 87 ft | 32 kts | 90° |
| 2026-04-25 07:26 | 51.46664 | -0.44690 | 87 ft | 33 kts | 89° |
| 2026-04-25 07:27 | 51.46662 | -0.44328 | 87 ft | 30 kts | 91° |
| 2026-04-25 07:27 | 51.46660 | -0.44076 | 87 ft | 13 kts | 114° |
| 2026-04-25 07:27 | 51.46601 | -0.44054 | 87 ft | 0 kts | 181° |
| 2026-04-25 07:28 | 51.46600 | -0.44054 | 87 ft | 2 kts | 181° |
| 2026-04-25 07:28 | 51.46537 | -0.44056 | 86 ft | 14 kts | 183° |
| 2026-04-25 07:28 | 51.46491 | -0.44162 | 86 ft | 4 kts | 270° |
| 2026-04-25 07:28 | 51.46492 | -0.44300 | 87 ft | 34 kts | 270° |
| 2026-04-25 07:29 | 51.46489 | -0.45076 | 88 ft | 102 kts | 269° |
| 2026-04-25 07:29 | 51.46482 | -0.46548 | 113 ft | 158 kts | 268° |
| 2026-04-25 07:29 | 51.46481 | -0.48259 | 830 ft | 155 kts | 270° |
| 2026-04-25 07:29 | 51.46487 | -0.50057 | 1409 ft | 169 kts | 270° |
| 2026-04-25 07:30 | 51.46493 | -0.52065 | 1839 ft | 191 kts | 270° |
| 2026-04-25 07:30 | 51.46497 | -0.54324 | 2255 ft | 216 kts | 270° |
| 2026-04-25 07:30 | 51.46503 | -0.56850 | 2825 ft | 241 kts | 270° |
| 2026-04-25 07:30 | 51.46505 | -0.59670 | 3562 ft | 261 kts | 269° |
| 2026-04-25 07:31 | 51.46226 | -0.62596 | 4597 ft | 269 kts | 256° |
| 2026-04-25 07:31 | 51.45785 | -0.65514 | 5739 ft | 271 kts | 259° |
| 2026-04-25 07:31 | 51.45647 | -0.68538 | 6864 ft | 273 kts | 269° |
| 2026-04-25 07:31 | 51.45626 | -0.71590 | 7936 ft | 275 kts | 269° |
| 2026-04-25 07:32 | 51.45581 | -0.74667 | 8953 ft | 279 kts | 268° |
| 2026-04-25 07:32 | 51.45515 | -0.77819 | 9987 ft | 282 kts | 268° |
| 2026-04-25 07:32 | 51.45394 | -0.81017 | 10646 ft | 298 kts | 260° |
| 2026-04-25 07:32 | 51.44583 | -0.84203 | 11017 ft | 321 kts | 238° |
| 2026-04-25 07:33 | 51.43106 | -0.86938 | 11709 ft | 331 kts | 219° |
| 2026-04-25 07:33 | 51.41158 | -0.88958 | 12526 ft | 336 kts | 211° |
| 2026-04-25 07:33 | 51.39128 | -0.90862 | 13380 ft | 340 kts | 211° |
| 2026-04-25 07:33 | 51.37069 | -0.92762 | 14195 ft | 344 kts | 210° |
| 2026-04-25 07:34 | 51.34984 | -0.94672 | 14932 ft | 347 kts | 210° |
| 2026-04-25 07:34 | 51.32872 | -0.96602 | 15664 ft | 351 kts | 210° |
| 2026-04-25 07:34 | 51.30738 | -0.98550 | 16405 ft | 354 kts | 210° |
| 2026-04-25 07:34 | 51.28623 | -1.00491 | 17151 ft | 357 kts | 211° |
| 2026-04-25 07:35 | 51.26500 | -1.02570 | 17900 ft | 360 kts | 213° |
| 2026-04-25 07:35 | 51.24388 | -1.04748 | 18620 ft | 363 kts | 214° |
| 2026-04-25 07:35 | 51.22243 | -1.07012 | 19276 ft | 366 kts | 214° |
| 2026-04-25 07:35 | 51.20117 | -1.09267 | 19929 ft | 369 kts | 214° |
| 2026-04-25 07:36 | 51.17994 | -1.11503 | 20580 ft | 372 kts | 214° |
| 2026-04-25 07:36 | 51.15797 | -1.13790 | 21238 ft | 375 kts | 214° |
| 2026-04-25 07:36 | 51.13601 | -1.16053 | 21876 ft | 378 kts | 214° |
| 2026-04-25 07:36 | 51.11408 | -1.18299 | 22154 ft | 379 kts | 214° |
| 2026-04-25 07:37 | 51.09181 | -1.20575 | 22218 ft | 371 kts | 214° |
| 2026-04-25 07:37 | 51.07021 | -1.22775 | 22221 ft | 367 kts | 214° |
| 2026-04-25 07:37 | 51.04874 | -1.24961 | 22220 ft | 366 kts | 214° |
| 2026-04-25 07:37 | 51.02759 | -1.27121 | 22219 ft | 365 kts | 214° |
| 2026-04-25 07:38 | 51.00621 | -1.29304 | 22218 ft | 365 kts | 214° |
| 2026-04-25 07:38 | 50.98478 | -1.31493 | 22221 ft | 365 kts | 214° |
| 2026-04-25 07:38 | 50.96338 | -1.33673 | 22221 ft | 365 kts | 214° |
| 2026-04-25 07:38 | 50.94121 | -1.35633 | 22221 ft | 366 kts | 208° |
| 2026-04-25 07:39 | 50.91844 | -1.37453 | 22224 ft | 366 kts | 208° |
| 2026-04-25 07:39 | 50.89571 | -1.39268 | 22220 ft | 366 kts | 208° |
| 2026-04-25 07:39 | 50.87300 | -1.41082 | 22222 ft | 366 kts | 208° |
| 2026-04-25 07:39 | 50.85023 | -1.42896 | 22221 ft | 365 kts | 208° |
| 2026-04-25 07:40 | 50.82756 | -1.44701 | 22224 ft | 365 kts | 208° |
| 2026-04-25 07:40 | 50.80485 | -1.46508 | 22226 ft | 365 kts | 208° |
| 2026-04-25 07:40 | 50.78220 | -1.48308 | 22226 ft | 365 kts | 208° |
| 2026-04-25 07:40 | 50.75954 | -1.50102 | 22227 ft | 364 kts | 208° |
| 2026-04-25 07:41 | 50.73686 | -1.51897 | 22227 ft | 364 kts | 208° |
| 2026-04-25 07:41 | 50.71421 | -1.53691 | 22227 ft | 364 kts | 208° |
| 2026-04-25 07:41 | 50.69154 | -1.55489 | 22227 ft | 364 kts | 208° |
| 2026-04-25 07:41 | 50.66894 | -1.57280 | 22223 ft | 364 kts | 208° |
| 2026-04-25 07:42 | 50.64629 | -1.59070 | 22222 ft | 364 kts | 208° |
| 2026-04-25 07:42 | 50.62363 | -1.60856 | 22210 ft | 364 kts | 208° |
| 2026-04-25 07:42 | 50.60095 | -1.62645 | 22212 ft | 364 kts | 208° |
| 2026-04-25 07:42 | 50.57860 | -1.64408 | 22206 ft | 364 kts | 208° |
| 2026-04-25 07:43 | 50.55594 | -1.66190 | 22211 ft | 364 kts | 208° |
| 2026-04-25 07:43 | 50.53324 | -1.67970 | 22213 ft | 364 kts | 207° |
| 2026-04-25 07:43 | 50.51061 | -1.69740 | 22213 ft | 364 kts | 207° |
| 2026-04-25 07:43 | 50.48795 | -1.71513 | 22211 ft | 364 kts | 207° |
| 2026-04-25 07:44 | 50.46531 | -1.73289 | 22211 ft | 364 kts | 208° |
| 2026-04-25 07:44 | 50.44265 | -1.75070 | 22210 ft | 364 kts | 208° |
| 2026-04-25 07:44 | 50.41997 | -1.76846 | 22211 ft | 364 kts | 207° |
| 2026-04-25 07:44 | 50.39731 | -1.78612 | 22203 ft | 364 kts | 207° |
| 2026-04-25 07:45 | 50.37463 | -1.80375 | 22201 ft | 364 kts | 207° |
| 2026-04-25 07:45 | 50.35191 | -1.82139 | 22200 ft | 364 kts | 207° |
| 2026-04-25 07:45 | 50.32922 | -1.83902 | 22201 ft | 364 kts | 207° |
| 2026-04-25 07:45 | 50.30655 | -1.85662 | 22209 ft | 364 kts | 207° |
| 2026-04-25 07:46 | 50.28391 | -1.87421 | 22213 ft | 363 kts | 207° |
| 2026-04-25 07:46 | 50.26129 | -1.89178 | 22214 ft | 363 kts | 207° |
| 2026-04-25 07:46 | 50.23868 | -1.90932 | 22215 ft | 362 kts | 207° |
| 2026-04-25 07:46 | 50.21611 | -1.92682 | 22215 ft | 362 kts | 207° |
| 2026-04-25 07:47 | 50.19355 | -1.94427 | 22215 ft | 362 kts | 207° |
| 2026-04-25 07:47 | 50.17094 | -1.96171 | 22204 ft | 362 kts | 207° |
| 2026-04-25 07:47 | 50.14834 | -1.97910 | 22201 ft | 362 kts | 207° |
| 2026-04-25 07:47 | 50.12574 | -1.99647 | 22194 ft | 363 kts | 207° |
| 2026-04-25 07:48 | 50.10341 | -2.01359 | 22190 ft | 363 kts | 207° |
| 2026-04-25 07:48 | 50.08080 | -2.03092 | 22039 ft | 360 kts | 207° |
| 2026-04-25 07:48 | 50.05855 | -2.04799 | 21725 ft | 353 kts | 207° |
| 2026-04-25 07:48 | 50.03668 | -2.06478 | 21287 ft | 348 kts | 207° |
| 2026-04-25 07:49 | 50.01496 | -2.08146 | 20836 ft | 345 kts | 207° |
| 2026-04-25 07:49 | 49.99377 | -2.09859 | 20396 ft | 341 kts | 212° |
| 2026-04-25 07:49 | 49.97502 | -2.12076 | 19935 ft | 338 kts | 224° |
| 2026-04-25 07:49 | 49.95907 | -2.14747 | 19405 ft | 338 kts | 229° |
| 2026-04-25 07:50 | 49.94353 | -2.17476 | 18884 ft | 337 kts | 229° |
| 2026-04-25 07:50 | 49.92808 | -2.20176 | 18552 ft | 331 kts | 229° |
| 2026-04-25 07:50 | 49.91282 | -2.22838 | 17954 ft | 332 kts | 228° |
| 2026-04-25 07:50 | 49.90263 | -2.24615 | 17561 ft | 332 kts | 228° |
| 2026-04-25 07:51 | 49.88228 | -2.28155 | 16859 ft | 330 kts | 229° |
| 2026-04-25 07:51 | 49.86705 | -2.30803 | 16362 ft | 328 kts | 228° |
| 2026-04-25 07:51 | 49.85186 | -2.33442 | 15891 ft | 326 kts | 228° |
| 2026-04-25 07:51 | 49.84171 | -2.35206 | 15580 ft | 324 kts | 228° |
| 2026-04-25 07:52 | 49.82682 | -2.37798 | 15143 ft | 321 kts | 228° |
| 2026-04-25 07:52 | 49.81201 | -2.40374 | 14672 ft | 319 kts | 228° |
| 2026-04-25 07:52 | 49.79727 | -2.42932 | 14199 ft | 318 kts | 227° |
| 2026-04-25 07:52 | 49.78260 | -2.45477 | 13740 ft | 315 kts | 227° |
| 2026-04-25 07:53 | 49.76805 | -2.47994 | 13284 ft | 312 kts | 227° |
| 2026-04-25 07:53 | 49.75372 | -2.50468 | 12782 ft | 311 kts | 227° |
| 2026-04-25 07:53 | 49.73936 | -2.52941 | 12450 ft | 304 kts | 227° |
| 2026-04-25 07:53 | 49.72555 | -2.55317 | 12192 ft | 291 kts | 227° |
| 2026-04-25 07:54 | 49.71212 | -2.57627 | 11733 ft | 287 kts | 227° |
| 2026-04-25 07:54 | 49.69877 | -2.59916 | 11177 ft | 287 kts | 226° |
| 2026-04-25 07:54 | 49.68234 | -2.61630 | 10753 ft | 286 kts | 200° |
| 2026-04-25 07:54 | 49.66308 | -2.62377 | 10360 ft | 286 kts | 191° |
| 2026-04-25 07:55 | 49.64355 | -2.62959 | 9996 ft | 285 kts | 190° |
| 2026-04-25 07:55 | 49.62407 | -2.63529 | 9582 ft | 284 kts | 191° |
| 2026-04-25 07:55 | 49.60467 | -2.64086 | 9210 ft | 283 kts | 191° |
| 2026-04-25 07:55 | 49.58541 | -2.64627 | 8818 ft | 282 kts | 191° |
| 2026-04-25 07:56 | 49.56611 | -2.65157 | 8443 ft | 281 kts | 190° |
| 2026-04-25 07:56 | 49.54715 | -2.65787 | 7966 ft | 278 kts | 201° |
| 2026-04-25 07:56 | 49.53139 | -2.67419 | 7493 ft | 273 kts | 230° |
| 2026-04-25 07:56 | 49.52275 | -2.69906 | 7024 ft | 264 kts | 257° |
| 2026-04-25 07:57 | 49.52088 | -2.72671 | 6586 ft | 258 kts | 269° |
| 2026-04-25 07:57 | 49.52062 | -2.75404 | 6122 ft | 253 kts | 270° |
| 2026-04-25 07:57 | 49.52060 | -2.78093 | 5664 ft | 249 kts | 270° |
| 2026-04-25 07:57 | 49.52068 | -2.80714 | 5281 ft | 240 kts | 270° |
| 2026-04-25 07:58 | 49.52075 | -2.83250 | 4910 ft | 234 kts | 268° |
| 2026-04-25 07:58 | 49.51641 | -2.85628 | 4520 ft | 232 kts | 237° |
| 2026-04-25 07:58 | 49.50481 | -2.87314 | 4131 ft | 230 kts | 213° |
| 2026-04-25 07:58 | 49.49120 | -2.88601 | 3743 ft | 229 kts | 211° |
| 2026-04-25 07:59 | 49.47707 | -2.89714 | 3315 ft | 229 kts | 195° |
| 2026-04-25 07:59 | 49.46144 | -2.89688 | 2928 ft | 227 kts | 162° |
| 2026-04-25 07:59 | 49.44802 | -2.88443 | 2544 ft | 226 kts | 140° |
| 2026-04-25 07:59 | 49.43738 | -2.86702 | 2282 ft | 220 kts | 130° |
| 2026-04-25 08:00 | 49.43033 | -2.84701 | 2150 ft | 208 kts | 108° |
| 2026-04-25 08:00 | 49.42850 | -2.82573 | 2083 ft | 196 kts | 91° |
| 2026-04-25 08:00 | 49.42911 | -2.80560 | 2000 ft | 180 kts | 90° |
| 2026-04-25 08:00 | 49.42966 | -2.78710 | 2008 ft | 170 kts | 90° |
| 2026-04-25 08:01 | 49.43018 | -2.76906 | 2011 ft | 167 kts | 90° |
| 2026-04-25 08:01 | 49.43070 | -2.75128 | 1984 ft | 167 kts | 89° |
| 2026-04-25 08:01 | 49.43121 | -2.73384 | 1834 ft | 160 kts | 89° |
| 2026-04-25 08:01 | 49.43168 | -2.71790 | 1642 ft | 139 kts | 90° |
| 2026-04-25 08:02 | 49.43209 | -2.70367 | 1470 ft | 130 kts | 90° |
| 2026-04-25 08:02 | 49.43247 | -2.69006 | 1307 ft | 126 kts | 90° |
| 2026-04-25 08:02 | 49.43285 | -2.67687 | 1141 ft | 123 kts | 89° |
| 2026-04-25 08:02 | 49.43322 | -2.66385 | 989 ft | 121 kts | 88° |
| 2026-04-25 08:03 | 49.43358 | -2.65096 | 810 ft | 120 kts | 89° |
| 2026-04-25 08:03 | 49.43396 | -2.63817 | 671 ft | 119 kts | 88° |
| 2026-04-25 08:03 | 49.43433 | -2.62555 | 510 ft | 117 kts | 88° |
| 2026-04-25 08:03 | 49.43469 | -2.61305 | 370 ft | 117 kts | 89° |
| 2026-04-25 08:04 | 49.43496 | -2.60290 | 346 ft | 60 kts | 87° |
| 2026-04-25 08:04 | 49.43508 | -2.59813 | 343 ft | 35 kts | 88° |
| 2026-04-25 08:04 | 49.43516 | -2.59501 | 346 ft | 26 kts | 87° |
| 2026-04-25 08:04 | 49.43523 | -2.59244 | 348 ft | 13 kts | 92° |
| 2026-04-25 08:05 | 49.43430 | -2.59199 | 338 ft | 21 kts | 181° |
| 2026-04-25 08:05 | 49.43372 | -2.59247 | 340 ft | 10 kts | 261° |
| 2026-04-25 08:05 | 49.43367 | -2.59384 | 335 ft | 15 kts | 268° |
| 2026-04-25 08:05 | 49.43362 | -2.59558 | 340 ft | 18 kts | 267° |
| 2026-04-25 08:06 | 49.43340 | -2.59688 | 339 ft | 10 kts | 184° |
| 2026-04-25 08:06 | 49.43278 | -2.59684 | 340 ft | 6 kts | 177° |
| 2026-04-25 08:06 | 49.43263 | -2.59683 | 340 ft | 0 kts | 177° |